TimeEDT,TemperatureF,Dew PointF,Humidity,Sea Level PressureIn,VisibilityMPH,Wind Direction,Wind SpeedMPH,Gust SpeedMPH,PrecipitationIn,Events,Conditions,WindDirDegrees,DateUTC
12:53 AM,53.1,50.0,89,30.24,10.0,SE,3.5,-,N/A,,Clear,130,2012-06-11 04:53:00
1:53 AM,53.1,50.0,89,30.24,10.0,Calm,Calm,-,N/A,,Clear,0,2012-06-11 05:53:00
2:53 AM,53.1,51.1,93,30.24,10.0,Calm,Calm,-,N/A,,Clear,0,2012-06-11 06:53:00
3:53 AM,50.0,46.9,89,30.24,10.0,NE,3.5,-,N/A,,Clear,40,2012-06-11 07:53:00
4:53 AM,53.1,50.0,89,30.24,10.0,East,8.1,-,N/A,,Clear,80,2012-06-11 08:53:00
5:53 AM,54.0,52.0,93,30.26,10.0,ENE,5.8,-,N/A,,Clear,70,2012-06-11 09:53:00
6:53 AM,57.9,53.1,84,30.29,10.0,ENE,6.9,-,N/A,,Clear,70,2012-06-11 10:53:00
7:53 AM,60.1,53.1,78,30.30,10.0,East,12.7,-,N/A,,Clear,90,2012-06-11 11:53:00
8:53 AM,62.6,53.6,72,30.30,10.0,East,10.4,-,N/A,,Clear,90,2012-06-11 12:53:00
9:53 AM,64.0,53.1,67,30.31,10.0,East,11.5,-,N/A,,Clear,100,2012-06-11 13:53:00
10:53 AM,64.0,55.0,73,30.32,10.0,ESE,11.5,-,N/A,,Clear,110,2012-06-11 14:53:00
11:53 AM,64.0,54.0,70,30.32,10.0,SE,10.4,-,N/A,,Clear,140,2012-06-11 15:53:00
12:53 PM,62.1,52.0,70,30.32,10.0,SE,11.5,-,N/A,,Clear,140,2012-06-11 16:53:00
1:53 PM,62.1,52.0,70,30.31,10.0,SSE,10.4,-,N/A,,Clear,150,2012-06-11 17:53:00
2:53 PM,61.0,51.1,70,30.31,10.0,SE,11.5,-,N/A,,Clear,140,2012-06-11 18:53:00
3:53 PM,60.1,52.0,75,30.30,10.0,SE,11.5,-,N/A,,Clear,130,2012-06-11 19:53:00
4:53 PM,59.0,52.0,78,30.28,10.0,SSE,9.2,-,N/A,,Clear,150,2012-06-11 20:53:00
5:53 PM,57.0,53.1,87,30.29,10.0,SSE,6.9,-,N/A,,Clear,160,2012-06-11 21:53:00
6:45 PM,53.6,51.8,94,30.28,0.8,SSE,10.4,-,N/A,,Mist,150,2012-06-11 22:45:00
6:53 PM,53.1,52.0,96,30.28,0.8,SSE,10.4,-,N/A,,Mist,150,2012-06-11 22:53:00
7:53 PM,52.0,52.0,100,30.27,0.2,SSE,6.9,-,N/A,Fog,Fog,150,2012-06-11 23:53:00
8:15 PM,51.8,51.8,100,30.27,0.2,SE,8.1,-,N/A,Fog,Fog,140,2012-06-12 00:15:00
8:34 PM,51.8,51.8,100,30.26,0.5,SE,6.9,-,N/A,Fog,Fog,140,2012-06-12 00:34:00
8:53 PM,52.0,52.0,100,30.27,0.5,SSE,6.9,-,N/A,Fog,Fog,150,2012-06-12 00:53:00
9:53 PM,52.0,52.0,100,30.28,0.5,SSE,5.8,-,N/A,Fog,Fog,150,2012-06-12 01:53:00
10:53 PM,52.0,52.0,100,30.27,0.8,SSE,6.9,-,N/A,,Mist,160,2012-06-12 02:53:00
11:53 PM,52.0,52.0,100,30.27,0.8,SSW,3.5,-,N/A,,Mist,200,2012-06-12 03:53:00